createdAt,value
2017-11-22T00:00:07.861Z,24.60
2017-11-22T00:05:09.667Z,24.97
2017-11-22T00:10:11.358Z,23.60
2017-11-22T00:15:13.041Z,23.07
2017-11-22T00:20:14.771Z,22.93
2017-11-22T00:25:16.467Z,22.93
2017-11-22T00:30:18.188Z,21.00
2017-11-22T00:35:21.399Z,21.53
2017-11-22T00:40:23.233Z,22.17
2017-11-22T00:45:24.918Z,21.20
2017-11-22T00:50:26.660Z,21.20
2017-11-22T00:55:29.083Z,22.40
2017-11-22T01:00:30.814Z,23.07
2017-11-22T01:05:32.548Z,23.00
2017-11-22T01:10:34.288Z,23.27
2017-11-22T01:15:36.360Z,21.53
2017-11-22T01:20:38.796Z,21.60
2017-11-22T01:25:41.223Z,21.70
2017-11-22T01:30:43.031Z,21.00
2017-11-22T01:35:44.728Z,21.17
2017-11-22T01:40:46.439Z,20.07
2017-11-22T01:45:48.197Z,22.33
2017-11-22T01:50:50.687Z,20.60
2017-11-22T01:55:52.510Z,19.83
2017-11-22T02:00:54.241Z,19.90
2017-11-22T02:05:55.992Z,19.03
2017-11-22T02:10:57.676Z,16.87
2017-11-22T02:15:59.350Z,18.03
2017-11-22T02:21:01.017Z,18.13
2017-11-22T02:26:03.432Z,16.80
2017-11-22T02:31:05.942Z,17.00
2017-11-22T02:36:08.435Z,15.73
2017-11-22T02:41:10.165Z,16.60
2017-11-22T02:46:11.900Z,16.83
2017-11-22T02:51:13.632Z,16.03
2017-11-22T02:56:15.418Z,15.03
2017-11-22T03:01:17.175Z,14.73
2017-11-22T03:06:18.955Z,15.30
2017-11-22T03:11:21.387Z,14.03
2017-11-22T03:16:23.071Z,14.40
2017-11-22T03:21:25.504Z,14.30
2017-11-22T03:26:27.202Z,14.30
2017-11-22T03:31:28.895Z,12.60
2017-11-22T03:36:30.663Z,13.40
2017-11-22T03:41:32.441Z,13.07
2017-11-22T03:46:34.177Z,12.23
2017-11-22T03:51:42.747Z,11.53
2017-11-22T03:56:45.230Z,11.97
2017-11-22T04:01:46.943Z,12.93
2017-11-22T04:06:48.692Z,11.43
2017-11-22T04:11:50.404Z,10.70
2017-11-22T04:16:52.113Z,11.23
2017-11-22T04:21:53.843Z,10.83
2017-11-22T04:26:56.275Z,11.17
2017-11-22T04:31:58.032Z,10.03
2017-11-22T04:36:59.725Z,10.70
2017-11-22T04:42:01.459Z,10.70
2017-11-22T04:47:04.764Z,11.13
2017-11-22T04:52:07.221Z,11.50
2017-11-22T04:57:09.508Z,11.50
2017-11-22T05:02:11.598Z,12.67
2017-11-22T05:07:13.396Z,11.47
2017-11-22T05:12:15.075Z,12.67
2017-11-22T05:17:16.765Z,11.70
2017-11-22T05:22:18.450Z,12.67
2017-11-22T05:27:20.131Z,11.17
2017-11-22T05:32:21.826Z,12.43
2017-11-22T05:37:23.512Z,12.40
2017-11-22T05:42:25.958Z,11.37
2017-11-22T05:47:27.675Z,12.23
2017-11-22T05:52:29.365Z,10.57
2017-11-22T05:57:31.129Z,12.20
2017-11-22T06:02:33.571Z,11.10
2017-11-22T06:07:35.346Z,11.00
2017-11-22T06:12:37.841Z,10.60
2017-11-22T06:17:39.548Z,10.57
2017-11-22T06:22:41.270Z,11.50
2017-11-22T06:27:42.975Z,10.17
2017-11-22T06:32:44.677Z,11.70
2017-11-22T06:37:46.361Z,11.40
2017-11-22T06:42:49.044Z,11.60
2017-11-22T06:47:50.876Z,11.93
2017-11-22T06:52:53.327Z,11.13
2017-11-22T06:57:55.025Z,11.40
2017-11-22T07:03:00.668Z,11.50
2017-11-22T07:08:03.123Z,13.03
2017-11-22T07:13:04.822Z,13.53
2017-11-22T07:18:06.507Z,12.00
2017-11-22T07:23:08.248Z,11.80
2017-11-22T07:28:09.950Z,12.20
2017-11-22T07:33:11.619Z,11.50
2017-11-22T07:38:13.324Z,12.20
2017-11-22T07:43:15.012Z,11.37
2017-11-22T07:48:16.700Z,13.10
2017-11-22T07:53:18.395Z,13.27
2017-11-22T07:58:21.097Z,12.57
2017-11-22T08:03:23.543Z,12.30
2017-11-22T08:08:25.261Z,12.80
2017-11-22T08:13:26.967Z,11.70
2017-11-22T08:18:28.645Z,12.53
2017-11-22T08:23:30.356Z,11.60
2017-11-22T08:28:32.061Z,11.87
2017-11-22T08:33:33.929Z,11.20
2017-11-22T08:38:35.654Z,11.67
2017-11-22T08:43:37.384Z,10.40
2017-11-22T08:48:39.105Z,10.70
2017-11-22T08:53:40.819Z,9.97
2017-11-22T08:58:42.563Z,10.30
2017-11-22T09:03:44.291Z,10.00
2017-11-22T09:08:46.716Z,9.67
2017-11-22T09:13:48.417Z,10.40
2017-11-22T09:18:54.157Z,10.60
2017-11-22T09:23:55.895Z,10.90
2017-11-22T09:28:58.344Z,12.27
2017-11-22T09:34:06.009Z,11.53
2017-11-22T09:39:07.692Z,11.70
2017-11-22T09:44:09.375Z,12.07
2017-11-22T09:49:11.100Z,12.10
2017-11-22T09:54:12.829Z,11.20
2017-11-22T09:59:14.523Z,11.10
2017-11-22T10:04:16.222Z,11.50
2017-11-22T10:09:17.912Z,10.07
2017-11-22T10:14:19.608Z,10.67
2017-11-22T10:19:23.208Z,10.57
2017-11-22T10:24:31.000Z,10.27
2017-11-22T10:29:38.752Z,10.00
2017-11-22T10:34:41.223Z,11.00
2017-11-22T10:39:42.942Z,10.80
2017-11-22T10:44:44.671Z,10.30
2017-11-22T10:49:47.188Z,10.30
2017-11-22T10:54:49.679Z,10.70
2017-11-22T10:59:51.425Z,9.83
2017-11-22T11:04:53.195Z,10.90
2017-11-22T11:09:54.916Z,11.20
2017-11-22T11:14:56.620Z,11.70
2017-11-22T11:19:58.307Z,10.37
2017-11-22T11:24:59.982Z,10.20
2017-11-22T11:30:01.670Z,11.90
2017-11-22T11:35:03.421Z,12.23
2017-11-22T11:40:05.150Z,11.70
2017-11-22T11:45:06.871Z,12.10
2017-11-22T11:50:08.632Z,10.67
2017-11-22T11:55:10.313Z,11.40
2017-11-22T12:00:12.147Z,10.97
2017-11-22T12:05:13.883Z,11.60
2017-11-22T12:10:17.023Z,12.37
2017-11-22T12:15:18.724Z,11.53
2017-11-22T12:20:20.884Z,12.60
2017-11-22T12:25:22.661Z,11.60
2017-11-22T12:30:24.843Z,12.60
2017-11-22T12:35:26.531Z,12.03
2017-11-22T12:40:28.990Z,12.80
2017-11-22T12:45:30.658Z,10.90
2017-11-22T12:50:32.360Z,12.50
2017-11-22T12:55:34.032Z,13.90
2017-11-22T13:00:36.516Z,12.37
2017-11-22T13:05:38.263Z,12.30
2017-11-22T13:10:44.912Z,14.43
2017-11-22T13:15:46.654Z,11.90
2017-11-22T13:20:48.384Z,13.40
2017-11-22T13:25:50.121Z,12.80
2017-11-22T13:30:51.839Z,13.43
2017-11-22T13:35:53.645Z,14.43
2017-11-22T13:40:56.154Z,12.27
2017-11-22T13:46:01.190Z,14.67
2017-11-22T13:51:03.151Z,12.90
2017-11-22T13:56:05.691Z,12.87
2017-11-22T14:01:07.491Z,13.03
2017-11-22T14:06:09.319Z,12.53
2017-11-22T14:11:11.060Z,12.20
2017-11-22T14:16:12.812Z,11.33
2017-11-22T14:21:14.620Z,12.97
2017-11-22T14:26:16.488Z,10.47
2017-11-22T14:31:18.248Z,11.07
2017-11-22T14:36:20.050Z,10.07
2017-11-22T14:41:21.825Z,11.27
2017-11-22T14:46:23.645Z,11.20
2017-11-22T14:51:25.403Z,9.93
2017-11-22T14:56:27.200Z,11.10
2017-11-22T15:01:28.923Z,10.43
2017-11-22T15:06:30.783Z,10.97
2017-11-22T15:11:33.368Z,10.37
2017-11-22T15:16:35.251Z,11.10
2017-11-22T15:21:37.644Z,9.90
2017-11-22T15:26:39.432Z,11.30
2017-11-22T15:31:41.209Z,10.47
2017-11-22T15:36:42.985Z,10.23
2017-11-22T15:41:44.700Z,10.10
2017-11-22T15:46:48.059Z,9.13
2017-11-22T15:51:49.872Z,9.60
2017-11-22T15:56:51.612Z,12.27
2017-11-22T16:01:53.403Z,9.77
2017-11-22T16:06:56.046Z,9.00
2017-11-22T16:11:58.608Z,9.53
2017-11-22T16:17:00.311Z,9.60
2017-11-22T16:22:02.086Z,7.87
2017-11-22T16:27:03.880Z,7.70
2017-11-22T16:32:06.339Z,7.73
2017-11-22T16:37:08.062Z,11.13
2017-11-22T16:42:09.832Z,7.60
2017-11-22T16:47:14.987Z,7.10
2017-11-22T16:52:18.299Z,6.70
2017-11-22T16:57:20.185Z,7.33
2017-11-22T17:02:22.018Z,7.50
2017-11-22T17:07:24.550Z,11.17
2017-11-22T17:12:26.247Z,8.03
2017-11-22T17:17:28.027Z,9.37
2017-11-22T17:22:30.492Z,12.90
2017-11-22T17:27:32.266Z,11.60
2017-11-22T17:32:33.976Z,9.90
2017-11-22T17:37:35.727Z,9.50
2017-11-22T17:42:37.448Z,8.60
2017-11-22T17:47:40.074Z,10.70
2017-11-22T17:52:43.411Z,8.80
2017-11-22T17:57:45.726Z,8.70
2017-11-22T18:02:47.568Z,8.57
2017-11-22T18:07:49.464Z,9.43
2017-11-22T18:12:52.006Z,9.40
2017-11-22T18:17:56.694Z,8.83
2017-11-22T18:22:58.818Z,8.53
2017-11-22T18:28:02.090Z,9.07
2017-11-22T18:33:04.068Z,9.40
2017-11-22T18:38:07.575Z,8.30
2017-11-22T18:43:09.654Z,8.23
2017-11-22T18:48:11.456Z,8.77
2017-11-22T18:53:13.184Z,8.97
2017-11-22T18:58:14.960Z,8.43
2017-11-22T19:03:16.718Z,8.30
2017-11-22T19:08:18.540Z,7.70
2017-11-22T19:13:21.288Z,8.03
2017-11-22T19:18:23.076Z,8.30
2017-11-22T19:23:24.811Z,8.53
2017-11-22T19:28:27.317Z,9.23
2017-11-22T19:33:29.011Z,8.50
2017-11-22T19:38:32.120Z,9.03
2017-11-22T19:43:33.876Z,8.33
2017-11-22T19:48:36.325Z,8.73
2017-11-22T19:53:38.040Z,8.33
2017-11-22T19:58:39.736Z,7.43
2017-11-22T20:03:41.537Z,7.40
2017-11-22T20:08:43.226Z,8.37
2017-11-22T20:13:45.100Z,7.80
2017-11-22T20:18:46.796Z,7.50
2017-11-22T20:23:49.255Z,6.30
2017-11-22T20:28:51.557Z,8.20
2017-11-22T20:33:56.691Z,7.73
2017-11-22T20:38:58.978Z,7.60
2017-11-22T20:44:00.847Z,7.70
2017-11-22T20:49:02.606Z,7.00
2017-11-22T20:54:04.360Z,7.00
2017-11-22T20:59:06.143Z,8.10
2017-11-22T21:04:09.023Z,6.97
2017-11-22T21:09:11.432Z,7.17
2017-11-22T21:14:14.106Z,7.97
2017-11-22T21:19:15.905Z,6.83
2017-11-22T21:24:17.648Z,8.77
2017-11-22T21:29:20.070Z,6.80
2017-11-22T21:34:22.567Z,7.07
2017-11-22T21:39:24.335Z,6.80
2017-11-22T21:44:26.074Z,6.90
2017-11-22T21:49:28.538Z,7.40
2017-11-22T21:54:30.265Z,6.90
2017-11-22T21:59:31.981Z,6.10
2017-11-22T22:04:34.433Z,6.50
2017-11-22T22:09:36.247Z,6.03
2017-11-22T22:14:37.960Z,6.33
2017-11-22T22:19:39.678Z,5.33
2017-11-22T22:24:41.398Z,5.70
2017-11-22T22:29:43.073Z,5.60
2017-11-22T22:34:44.748Z,5.37
2017-11-22T22:39:46.466Z,5.60
2017-11-22T22:44:48.159Z,5.67
2017-11-22T22:49:51.028Z,5.77
2017-11-22T22:54:53.406Z,5.90
2017-11-22T22:59:56.192Z,5.40
2017-11-22T23:04:58.424Z,4.70
2017-11-22T23:10:00.390Z,4.93
2017-11-22T23:15:02.082Z,4.70
2017-11-22T23:20:04.557Z,4.57
2017-11-22T23:25:06.292Z,5.67
2017-11-22T23:30:08.714Z,4.80
2017-11-22T23:35:10.458Z,4.70
2017-11-22T23:40:12.169Z,4.70
2017-11-22T23:45:13.915Z,5.40
2017-11-22T23:50:15.621Z,4.13
2017-11-22T23:55:17.319Z,4.80
